Hl Boryeong — 3FYM — position and weather

sailwx.info

Track history (hours):
 
Tides and Currents Weather Stations Pressure Air Temp Water Temp Dewpoint Dewpoint Depression Visibility Wind Speed Wind Dir Waves Ship Positions

Hl Boryeong

Last reported at 2017-Oct-03 14:48 UTC. Time now 2017-Oct-20 10:36 UTC.
Position S 27°44' E 154°02'.
Warning: this ship's position is 16 days out of date.

Length 273 m; draft 15.1 m.

Type: Cargo ship. MMSI: 374471000.

Date/timePositionNaut miles runAvg speedWind from/ knotsBaromVisibWave heightAir tempDewpointWater temp
2017-Oct-03 14:48S 27°44' E 154°02'1010.7
2017-Oct-03 13:55S 27°53' E 154°01'510.5
2017-Oct-03 13:29S 27°58' E 154°01'510.2
2017-Oct-03 13:00S 28°03' E 154°00'5 9.9
2017-Oct-03 12:30S 28°08' E 153°60'5 9.7
2017-Oct-03 12:00S 28°13' E 153°59'6 9.5
2017-Oct-03 11:19S 28°19' E 153°58'310.0
2017-Oct-03 10:59S 28°22' E 153°57'510.2
2017-Oct-03 10:29S 28°27' E 153°56'510.1
2017-Oct-03 09:59S 28°32' E 153°56'21611.3
2017-Oct-02 14:53S 32°02' E 152°52'2311.0
2017-Oct-02 12:46S 32°24' E 152°43'311.6
2017-Oct-02 12:30S 32°26' E 152°42'611.4
2017-Oct-02 12:00S 32°32' E 152°39'611.9
2017-Oct-02 11:30S 32°36' E 152°34'612.1
2017-Oct-02 11:00S 32°40' E 152°29'612.5
2017-Oct-02 10:30S 32°45' E 152°24'612.9
2017-Oct-02 10:00S 32°48' E 152°18'612.4
2017-Oct-02 09:30S 32°51' E 152°11'612.0
2017-Oct-02 09:00S 32°52' E 152°04'611.8
2017-Oct-02 08:30S 32°54' E 151°57'510.7
2017-Oct-02 08:00S 32°57' E 151°52'3 6.8
2017-Oct-02 07:30S 32°55' E 151°48'2 3.2
2017-Oct-02 07:00S 32°54' E 151°46'1 3.0
2017-Oct-02 06:31S 32°53' E 151°45'0 0.2
2017-Oct-02 05:59S 32°53' E 151°45'0 0.0
2017-Oct-02 04:14S 32°53' E 151°45'0 0.0
2017-Oct-02 03:59S 32°53' E 151°45'0 0.0
2017-Oct-02 03:29S 32°53' E 151°45'0 0.0
2017-Oct-02 02:56S 32°53' E 151°45'0 0.0
2017-Oct-02 02:29S 32°53' E 151°45'0 0.0
2017-Oct-02 01:59S 32°53' E 151°45'0 0.0
2017-Oct-02 01:29S 32°53' E 151°45'0 0.0
2017-Oct-02 00:56S 32°53' E 151°45'0 0.0
2017-Oct-02 00:29S 32°53' E 151°45'0 0.0
2017-Oct-01 23:59S 32°53' E 151°45'0 0.0
2017-Oct-01 23:26S 32°53' E 151°45'0 0.0
2017-Oct-01 22:59S 32°53' E 151°45'0 0.0
2017-Oct-01 22:29S 32°53' E 151°45'0 0.0
2017-Oct-01 21:59S 32°53' E 151°45'0 0.0
2017-Oct-01 21:29S 32°53' E 151°45'0 0.0
2017-Oct-01 20:59S 32°53' E 151°45'0 0.0
2017-Oct-01 20:29S 32°53' E 151°45'0 0.0
2017-Oct-01 19:59S 32°53' E 151°45'0 0.0
2017-Oct-01 19:29S 32°53' E 151°45'0 0.0
2017-Oct-01 18:59S 32°53' E 151°45'0 0.0
2017-Oct-01 18:29S 32°53' E 151°45'0 0.0
2017-Oct-01 17:59S 32°53' E 151°45'0 0.0
2017-Oct-01 17:29S 32°53' E 151°45'0 0.0
2017-Oct-01 16:59S 32°53' E 151°45'0 0.0
2017-Oct-01 16:29S 32°53' E 151°45'0 0.0
2017-Oct-01 15:59S 32°53' E 151°45'0 0.0
2017-Oct-01 15:26S 32°53' E 151°45'0 0.0
2017-Oct-01 14:59S 32°53' E 151°45'0 0.0
2017-Oct-01 14:29S 32°53' E 151°45'0 0.0
2017-Oct-01 13:59S 32°53' E 151°45'0 0.0
2017-Oct-01 13:29S 32°53' E 151°45'0 0.0
2017-Oct-01 12:59S 32°53' E 151°45'0 0.0
2017-Oct-01 12:29S 32°53' E 151°45'0 0.0
2017-Oct-01 11:59S 32°53' E 151°45'0 0.0
2017-Oct-01 11:29S 32°53' E 151°45'0 0.0
2017-Oct-01 10:56S 32°53' E 151°45'0 0.0
2017-Oct-01 10:29S 32°53' E 151°45'0 0.0
2017-Oct-01 09:56S 32°53' E 151°45'0 0.0
2017-Oct-01 09:29S 32°53' E 151°45'0 0.0
2017-Oct-01 08:59S 32°53' E 151°45'0 0.0
2017-Oct-01 08:29S 32°53' E 151°45'0 0.0
2017-Oct-01 07:26S 32°53' E 151°45'0 0.0
2017-Oct-01 06:59S 32°53' E 151°45'0 0.0
2017-Oct-01 06:29S 32°53' E 151°45'0 0.0
2017-Oct-01 05:56S 32°53' E 151°45'0 0.0
2017-Oct-01 05:29S 32°53' E 151°45'0 0.0
2017-Oct-01 04:59S 32°53' E 151°45'0 0.0
2017-Oct-01 04:29S 32°53' E 151°45'0 0.0
2017-Oct-01 03:59S 32°53' E 151°45'0 0.0
2017-Oct-01 03:29S 32°53' E 151°45'0 0.0
2017-Oct-01 02:59S 32°53' E 151°45'27 1.0
2017-Sep-30 00:55S 33°13' E 152°07'0 0.9
2017-Sep-30 00:30S 33°13' E 152°07'1 1.1
2017-Sep-30 00:00S 33°13' E 152°06'1 1.3
2017-Sep-29 23:30S 33°12' E 152°06'1 1.3
2017-Sep-29 23:00S 33°12' E 152°05'1 2.4
2017-Sep-29 22:30S 33°11' E 152°04'510.1
2017-Sep-29 22:00S 33°06' E 152°03'612.6
2017-Sep-29 21:30S 32°60' E 152°00'510.6
2017-Sep-29 21:00S 32°55' E 152°00'612.6
2017-Sep-29 20:30S 32°52' E 152°07'612.5
2017-Sep-29 20:00S 32°49' E 152°14'612.6
2017-Sep-29 19:30S 32°47' E 152°21'612.1
2017-Sep-29 19:00S 32°43' E 152°26'612.7
2017-Sep-29 18:30S 32°39' E 152°32'612.9
2017-Sep-29 18:00S 32°34' E 152°36'612.9
2017-Sep-29 17:30S 32°29' E 152°41'713.2
2017-Sep-29 17:00S 32°22' E 152°43'713.4
2017-Sep-29 16:30S 32°16' E 152°46'713.5
2017-Sep-29 16:00S 32°09' E 152°49'713.3
2017-Sep-29 15:30S 32°03' E 152°51'713.4
2017-Sep-29 14:57S 31°56' E 152°54'15315.3
2017-Sep-29 04:57S 29°31' E 153°52'614.0
2017-Sep-29 04:30S 29°25' E 153°55'714.0
2017-Sep-29 04:00S 29°19' E 153°58'714.1
2017-Sep-29 03:30S 29°12' E 154°01'714.1
2017-Sep-29 03:00S 29°06' E 154°03'1014.5
2017-Sep-29 02:20S 28°56' E 154°05'515.5
2017-Sep-29 02:00S 28°51' E 154°05'815.4
2017-Sep-29 01:30S 28°43' E 154°06'815.8
2017-Sep-29 01:00S 28°35' E 154°06'816.3
2017-Sep-29 00:30S 28°27' E 154°07'917.1
2017-Sep-29 00:00S 28°19' E 154°08'917.2
2017-Sep-28 23:30S 28°10' E 154°09'816.8
2017-Sep-28 23:00S 28°02' E 154°09'816.5
2017-Sep-28 22:30S 27°54' E 154°10'917.1
2017-Sep-28 22:01S 27°45' E 154°11'816.5
2017-Sep-28 21:31S 27°37' E 154°12'816.1
2017-Sep-28 21:01S 27°29' E 154°12'816.1
2017-Sep-28 20:31S 27°21' E 154°13'816.1
2017-Sep-28 20:00S 27°13' E 154°13'815.8
2017-Sep-28 19:31S 27°05' E 154°13'815.6
2017-Sep-28 19:01S 26°57' E 154°14'815.5
2017-Sep-28 18:30S 26°49' E 154°14'815.5
2017-Sep-28 18:00S 26°42' E 154°14'815.6
2017-Sep-28 17:30S 26°34' E 154°14'815.8
2017-Sep-28 17:00S 26°26' E 154°15'1716.2
2017-Sep-28 15:58S 26°09' E 154°15'816.5
2017-Sep-28 15:30S 26°01' E 154°16'916.6
2017-Sep-28 14:56S 25°52' E 154°16'716.7
2017-Sep-28 14:31S 25°45' E 154°16'916.6
2017-Sep-28 13:59S 25°36' E 154°16'1016.4
2017-Sep-28 13:24S 25°27' E 154°17'716.2
2017-Sep-28 13:00S 25°20' E 154°17'1016.0
2017-Sep-28 12:21S 25°10' E 154°17'615.9
2017-Sep-28 12:00S 25°04' E 154°17'815.8
2017-Sep-28 11:30S 24°56' E 154°18'815.9
2017-Sep-28 11:00S 24°48' E 154°18'815.4
2017-Sep-28 10:30S 24°41' E 154°18'815.6
2017-Sep-28 10:00S 24°33' E 154°17'815.4
2017-Sep-28 09:30S 24°25' E 154°17'815.4
2017-Sep-28 09:00S 24°18' E 154°16'815.4
2017-Sep-28 08:30S 24°10' E 154°15'815.3
2017-Sep-28 08:01S 24°02' E 154°15'815.5
2017-Sep-28 07:31S 23°55' E 154°14'  
Track history (hours):
 
Tides and Currents Weather Stations Pressure Air Temp Water Temp Dewpoint Dewpoint Depression Visibility Wind Speed Wind Dir Waves Ship Positions

Hl Boryeong

Last reported at 2017-Oct-03 14:48 UTC. Time now 2017-Oct-20 10:36 UTC.
Position S 27°44' E 154°02'.
Warning: this ship's position is 16 days out of date.

Length 273 m; draft 15.1 m.

Type: Cargo ship. MMSI: 374471000.

Date/timePositionNaut miles runAvg speedWind from/ knotsBaromVisibWave heightAir tempDewpointWater temp
2017-Oct-03 14:48S 27°44' E 154°02'1010.7
2017-Oct-03 13:55S 27°53' E 154°01'510.5
2017-Oct-03 13:29S 27°58' E 154°01'510.2
2017-Oct-03 13:00S 28°03' E 154°00'5 9.9
2017-Oct-03 12:30S 28°08' E 153°60'5 9.7
2017-Oct-03 12:00S 28°13' E 153°59'6 9.5
2017-Oct-03 11:19S 28°19' E 153°58'310.0
2017-Oct-03 10:59S 28°22' E 153°57'510.2
2017-Oct-03 10:29S 28°27' E 153°56'510.1
2017-Oct-03 09:59S 28°32' E 153°56'21611.3
2017-Oct-02 14:53S 32°02' E 152°52'2311.0
2017-Oct-02 12:46S 32°24' E 152°43'311.6
2017-Oct-02 12:30S 32°26' E 152°42'611.4
2017-Oct-02 12:00S 32°32' E 152°39'611.9
2017-Oct-02 11:30S 32°36' E 152°34'612.1
2017-Oct-02 11:00S 32°40' E 152°29'612.5
2017-Oct-02 10:30S 32°45' E 152°24'612.9
2017-Oct-02 10:00S 32°48' E 152°18'612.4
2017-Oct-02 09:30S 32°51' E 152°11'612.0
2017-Oct-02 09:00S 32°52' E 152°04'611.8
2017-Oct-02 08:30S 32°54' E 151°57'510.7
2017-Oct-02 08:00S 32°57' E 151°52'3 6.8
2017-Oct-02 07:30S 32°55' E 151°48'2 3.2
2017-Oct-02 07:00S 32°54' E 151°46'1 3.0
2017-Oct-02 06:31S 32°53' E 151°45'0 0.2
2017-Oct-02 05:59S 32°53' E 151°45'0 0.0
2017-Oct-02 04:14S 32°53' E 151°45'0 0.0
2017-Oct-02 03:59S 32°53' E 151°45'0 0.0
2017-Oct-02 03:29S 32°53' E 151°45'0 0.0
2017-Oct-02 02:56S 32°53' E 151°45'0 0.0
2017-Oct-02 02:29S 32°53' E 151°45'0 0.0
2017-Oct-02 01:59S 32°53' E 151°45'0 0.0
2017-Oct-02 01:29S 32°53' E 151°45'0 0.0
2017-Oct-02 00:56S 32°53' E 151°45'0 0.0
2017-Oct-02 00:29S 32°53' E 151°45'0 0.0
2017-Oct-01 23:59S 32°53' E 151°45'0 0.0
2017-Oct-01 23:26S 32°53' E 151°45'0 0.0
2017-Oct-01 22:59S 32°53' E 151°45'0 0.0
2017-Oct-01 22:29S 32°53' E 151°45'0 0.0
2017-Oct-01 21:59S 32°53' E 151°45'0 0.0
2017-Oct-01 21:29S 32°53' E 151°45'0 0.0
2017-Oct-01 20:59S 32°53' E 151°45'0 0.0
2017-Oct-01 20:29S 32°53' E 151°45'0 0.0
2017-Oct-01 19:59S 32°53' E 151°45'0 0.0
2017-Oct-01 19:29S 32°53' E 151°45'0 0.0
2017-Oct-01 18:59S 32°53' E 151°45'0 0.0
2017-Oct-01 18:29S 32°53' E 151°45'0 0.0
2017-Oct-01 17:59S 32°53' E 151°45'0 0.0
2017-Oct-01 17:29S 32°53' E 151°45'0 0.0
2017-Oct-01 16:59S 32°53' E 151°45'0 0.0
2017-Oct-01 16:29S 32°53' E 151°45'0 0.0
2017-Oct-01 15:59S 32°53' E 151°45'0 0.0
2017-Oct-01 15:26S 32°53' E 151°45'0 0.0
2017-Oct-01 14:59S 32°53' E 151°45'0 0.0
2017-Oct-01 14:29S 32°53' E 151°45'0 0.0
2017-Oct-01 13:59S 32°53' E 151°45'0 0.0
2017-Oct-01 13:29S 32°53' E 151°45'0 0.0
2017-Oct-01 12:59S 32°53' E 151°45'0 0.0
2017-Oct-01 12:29S 32°53' E 151°45'0 0.0
2017-Oct-01 11:59S 32°53' E 151°45'0 0.0
2017-Oct-01 11:29S 32°53' E 151°45'0 0.0
2017-Oct-01 10:56S 32°53' E 151°45'0 0.0
2017-Oct-01 10:29S 32°53' E 151°45'0 0.0
2017-Oct-01 09:56S 32°53' E 151°45'0 0.0
2017-Oct-01 09:29S 32°53' E 151°45'0 0.0
2017-Oct-01 08:59S 32°53' E 151°45'0 0.0
2017-Oct-01 08:29S 32°53' E 151°45'0 0.0
2017-Oct-01 07:26S 32°53' E 151°45'0 0.0
2017-Oct-01 06:59S 32°53' E 151°45'0 0.0
2017-Oct-01 06:29S 32°53' E 151°45'0 0.0
2017-Oct-01 05:56S 32°53' E 151°45'0 0.0
2017-Oct-01 05:29S 32°53' E 151°45'0 0.0
2017-Oct-01 04:59S 32°53' E 151°45'0 0.0
2017-Oct-01 04:29S 32°53' E 151°45'0 0.0
2017-Oct-01 03:59S 32°53' E 151°45'0 0.0
2017-Oct-01 03:29S 32°53' E 151°45'0 0.0
2017-Oct-01 02:59S 32°53' E 151°45'27 1.0
2017-Sep-30 00:55S 33°13' E 152°07'0 0.9
2017-Sep-30 00:30S 33°13' E 152°07'1 1.1
2017-Sep-30 00:00S 33°13' E 152°06'1 1.3
2017-Sep-29 23:30S 33°12' E 152°06'1 1.3
2017-Sep-29 23:00S 33°12' E 152°05'1 2.4
2017-Sep-29 22:30S 33°11' E 152°04'510.1
2017-Sep-29 22:00S 33°06' E 152°03'612.6
2017-Sep-29 21:30S 32°60' E 152°00'510.6
2017-Sep-29 21:00S 32°55' E 152°00'612.6
2017-Sep-29 20:30S 32°52' E 152°07'612.5
2017-Sep-29 20:00S 32°49' E 152°14'612.6
2017-Sep-29 19:30S 32°47' E 152°21'612.1
2017-Sep-29 19:00S 32°43' E 152°26'612.7
2017-Sep-29 18:30S 32°39' E 152°32'612.9
2017-Sep-29 18:00S 32°34' E 152°36'612.9
2017-Sep-29 17:30S 32°29' E 152°41'713.2
2017-Sep-29 17:00S 32°22' E 152°43'713.4
2017-Sep-29 16:30S 32°16' E 152°46'713.5
2017-Sep-29 16:00S 32°09' E 152°49'713.3
2017-Sep-29 15:30S 32°03' E 152°51'713.4
2017-Sep-29 14:57S 31°56' E 152°54'15315.3
2017-Sep-29 04:57S 29°31' E 153°52'614.0
2017-Sep-29 04:30S 29°25' E 153°55'714.0
2017-Sep-29 04:00S 29°19' E 153°58'714.1
2017-Sep-29 03:30S 29°12' E 154°01'714.1
2017-Sep-29 03:00S 29°06' E 154°03'1014.5
2017-Sep-29 02:20S 28°56' E 154°05'515.5
2017-Sep-29 02:00S 28°51' E 154°05'815.4
2017-Sep-29 01:30S 28°43' E 154°06'815.8
2017-Sep-29 01:00S 28°35' E 154°06'816.3
2017-Sep-29 00:30S 28°27' E 154°07'917.1
2017-Sep-29 00:00S 28°19' E 154°08'917.2
2017-Sep-28 23:30S 28°10' E 154°09'816.8
2017-Sep-28 23:00S 28°02' E 154°09'816.5
2017-Sep-28 22:30S 27°54' E 154°10'917.1
2017-Sep-28 22:01S 27°45' E 154°11'816.5
2017-Sep-28 21:31S 27°37' E 154°12'816.1
2017-Sep-28 21:01S 27°29' E 154°12'816.1
2017-Sep-28 20:31S 27°21' E 154°13'816.1
2017-Sep-28 20:00S 27°13' E 154°13'815.8
2017-Sep-28 19:31S 27°05' E 154°13'815.6
2017-Sep-28 19:01S 26°57' E 154°14'815.5
2017-Sep-28 18:30S 26°49' E 154°14'815.5
2017-Sep-28 18:00S 26°42' E 154°14'815.6
2017-Sep-28 17:30S 26°34' E 154°14'815.8
2017-Sep-28 17:00S 26°26' E 154°15'1716.2
2017-Sep-28 15:58S 26°09' E 154°15'816.5
2017-Sep-28 15:30S 26°01' E 154°16'916.6
2017-Sep-28 14:56S 25°52' E 154°16'716.7
2017-Sep-28 14:31S 25°45' E 154°16'916.6
2017-Sep-28 13:59S 25°36' E 154°16'1016.4
2017-Sep-28 13:24S 25°27' E 154°17'716.2
2017-Sep-28 13:00S 25°20' E 154°17'1016.0
2017-Sep-28 12:21S 25°10' E 154°17'615.9
2017-Sep-28 12:00S 25°04' E 154°17'815.8
2017-Sep-28 11:30S 24°56' E 154°18'815.9
2017-Sep-28 11:00S 24°48' E 154°18'815.4
2017-Sep-28 10:30S 24°41' E 154°18'815.6
2017-Sep-28 10:00S 24°33' E 154°17'815.4
2017-Sep-28 09:30S 24°25' E 154°17'815.4
2017-Sep-28 09:00S 24°18' E 154°16'815.4
2017-Sep-28 08:30S 24°10' E 154°15'815.3
2017-Sep-28 08:01S 24°02' E 154°15'815.5
2017-Sep-28 07:31S 23°55' E 154°14'  

Dump ship's entire track history